SAA75W FALE-FACT
Flight info
| Callsign | SAA75W |
|---|---|
| Flight time | N/A |
| Altitude | 40000 |
| Route | TUBIN1B TUBIN UZ3 ESRUK UQ51 GETEN GETEN1C |
| Aircraft | A343/H-SDE2E3FGHIJ4J5M1RWXY/LB1D1 |
Departure
| Time | N/A |
|---|---|
| Airport | King Shaka International Airport (FALE) |
Arrival
| Time | 2026-05-04 22:11 |
|---|---|
| Airport | Cape Town International Airport (FACT) |
| Time | Latitude | Longitude | Altitude | Speed | Heading |
|---|---|---|---|---|---|
| 2026-05-04 20:48 | -30.98915 | 28.00087 | 39980 ft | 419 kts | 250° |
| 2026-05-04 20:49 | -31.01289 | 27.93866 | 39966 ft | 420 kts | 251° |
| 2026-05-04 20:49 | -31.03668 | 27.87657 | 39971 ft | 419 kts | 251° |
| 2026-05-04 20:50 | -31.06051 | 27.81414 | 39966 ft | 418 kts | 251° |
| 2026-05-04 20:50 | -31.08412 | 27.75207 | 39964 ft | 418 kts | 251° |
| 2026-05-04 20:51 | -31.10748 | 27.69079 | 39964 ft | 418 kts | 251° |
| 2026-05-04 20:51 | -31.13133 | 27.62792 | 39980 ft | 419 kts | 251° |
| 2026-05-04 20:52 | -31.15495 | 27.56563 | 39983 ft | 419 kts | 251° |
| 2026-05-04 20:52 | -31.17853 | 27.50339 | 39977 ft | 418 kts | 251° |
| 2026-05-04 20:53 | -31.20196 | 27.44127 | 39981 ft | 418 kts | 251° |
| 2026-05-04 20:53 | -31.22544 | 27.37903 | 39986 ft | 417 kts | 251° |
| 2026-05-04 20:54 | -31.24879 | 27.31696 | 39985 ft | 418 kts | 251° |
| 2026-05-04 20:54 | -31.27217 | 27.25479 | 39981 ft | 418 kts | 251° |
| 2026-05-04 20:55 | -31.29565 | 27.19215 | 39989 ft | 418 kts | 251° |
| 2026-05-04 20:55 | -31.31896 | 27.12986 | 39991 ft | 417 kts | 251° |
| 2026-05-04 20:56 | -31.34226 | 27.06763 | 39989 ft | 418 kts | 251° |
| 2026-05-04 20:56 | -31.36552 | 27.00524 | 39989 ft | 418 kts | 252° |
| 2026-05-04 20:57 | -31.38872 | 26.94291 | 39992 ft | 418 kts | 252° |
| 2026-05-04 20:57 | -31.40412 | 26.90114 | 39986 ft | 418 kts | 252° |
| 2026-05-04 20:58 | -31.45664 | 26.75811 | 39987 ft | 418 kts | 252° |
| 2026-05-04 20:59 | -31.47952 | 26.69585 | 39985 ft | 418 kts | 252° |
| 2026-05-04 20:59 | -31.50265 | 26.63278 | 39998 ft | 419 kts | 252° |
| 2026-05-04 21:00 | -31.52554 | 26.57000 | 39998 ft | 418 kts | 252° |
| 2026-05-04 21:00 | -31.54847 | 26.50721 | 39998 ft | 419 kts | 252° |
| 2026-05-04 21:01 | -31.57149 | 26.44443 | 39997 ft | 419 kts | 252° |
| 2026-05-04 21:01 | -31.59443 | 26.38167 | 39999 ft | 419 kts | 252° |
| 2026-05-04 21:02 | -31.61758 | 26.31827 | 40002 ft | 419 kts | 252° |
| 2026-05-04 21:02 | -31.64047 | 26.25540 | 39989 ft | 419 kts | 252° |
| 2026-05-04 21:03 | -31.66331 | 26.19263 | 39978 ft | 418 kts | 252° |
| 2026-05-04 21:03 | -31.68620 | 26.12970 | 39982 ft | 418 kts | 252° |
| 2026-05-04 21:04 | -31.70894 | 26.06685 | 39975 ft | 419 kts | 253° |
| 2026-05-04 21:04 | -31.73161 | 26.00412 | 39994 ft | 419 kts | 253° |
| 2026-05-04 21:05 | -31.75437 | 25.94105 | 40026 ft | 419 kts | 253° |
| 2026-05-04 21:05 | -31.77711 | 25.87802 | 40027 ft | 419 kts | 253° |
| 2026-05-04 21:06 | -31.79987 | 25.81484 | 40023 ft | 419 kts | 253° |
| 2026-05-04 21:06 | -31.82252 | 25.75171 | 40026 ft | 419 kts | 253° |
| 2026-05-04 21:07 | -31.84132 | 25.69915 | 40025 ft | 419 kts | 253° |
| 2026-05-04 21:07 | -31.86404 | 25.63574 | 40027 ft | 419 kts | 253° |
| 2026-05-04 21:08 | -31.88665 | 25.57250 | 40017 ft | 420 kts | 253° |
| 2026-05-04 21:08 | -31.90921 | 25.50914 | 40016 ft | 420 kts | 253° |
| 2026-05-04 21:09 | -31.93176 | 25.44571 | 40016 ft | 420 kts | 253° |
| 2026-05-04 21:09 | -31.95427 | 25.38221 | 40016 ft | 420 kts | 253° |
| 2026-05-04 21:10 | -31.97676 | 25.31878 | 40015 ft | 420 kts | 253° |
| 2026-05-04 21:10 | -31.99929 | 25.25519 | 40008 ft | 421 kts | 253° |
| 2026-05-04 21:11 | -32.02183 | 25.19128 | 40008 ft | 421 kts | 253° |
| 2026-05-04 21:11 | -32.04441 | 25.12727 | 40009 ft | 425 kts | 253° |
| 2026-05-04 21:12 | -32.06711 | 25.06279 | 40008 ft | 426 kts | 253° |
| 2026-05-04 21:12 | -32.08983 | 24.99816 | 40009 ft | 427 kts | 253° |
| 2026-05-04 21:13 | -32.11243 | 24.93369 | 39998 ft | 427 kts | 253° |
| 2026-05-04 21:13 | -32.13514 | 24.86877 | 39999 ft | 427 kts | 253° |
| 2026-05-04 21:14 | -32.15775 | 24.80401 | 40000 ft | 427 kts | 253° |
| 2026-05-04 21:14 | -32.18025 | 24.73940 | 39997 ft | 427 kts | 254° |
| 2026-05-04 21:15 | -32.20296 | 24.67412 | 39993 ft | 428 kts | 254° |
| 2026-05-04 21:15 | -32.22554 | 24.60902 | 39993 ft | 428 kts | 254° |
| 2026-05-04 21:16 | -32.24811 | 24.54387 | 39989 ft | 428 kts | 254° |
| 2026-05-04 21:16 | -32.27053 | 24.47900 | 39988 ft | 429 kts | 254° |
| 2026-05-04 21:17 | -32.29306 | 24.41368 | 39990 ft | 429 kts | 254° |
| 2026-05-04 21:17 | -32.31558 | 24.34828 | 39990 ft | 429 kts | 254° |
| 2026-05-04 21:18 | -32.33804 | 24.28289 | 39992 ft | 429 kts | 254° |
| 2026-05-04 21:18 | -32.36048 | 24.21754 | 39992 ft | 429 kts | 254° |
| 2026-05-04 21:19 | -32.38279 | 24.15238 | 39991 ft | 429 kts | 254° |
| 2026-05-04 21:19 | -32.40519 | 24.08673 | 39994 ft | 430 kts | 254° |
| 2026-05-04 21:20 | -32.42751 | 24.02117 | 39991 ft | 429 kts | 254° |
| 2026-05-04 21:20 | -32.44977 | 23.95556 | 39986 ft | 430 kts | 254° |
| 2026-05-04 21:21 | -32.47206 | 23.88975 | 39991 ft | 430 kts | 254° |
| 2026-05-04 21:21 | -32.49432 | 23.82396 | 39991 ft | 430 kts | 254° |
| 2026-05-04 21:22 | -32.51638 | 23.75859 | 39986 ft | 430 kts | 254° |
| 2026-05-04 21:22 | -32.53855 | 23.69273 | 39993 ft | 430 kts | 254° |
| 2026-05-04 21:23 | -32.56069 | 23.62684 | 39986 ft | 430 kts | 254° |
| 2026-05-04 21:23 | -32.58283 | 23.56078 | 39988 ft | 430 kts | 254° |
| 2026-05-04 21:24 | -32.60496 | 23.49464 | 39991 ft | 430 kts | 254° |
| 2026-05-04 21:24 | -32.62705 | 23.42850 | 39989 ft | 431 kts | 254° |
| 2026-05-04 21:25 | -32.64913 | 23.36233 | 39990 ft | 431 kts | 254° |
| 2026-05-04 21:25 | -32.67125 | 23.29611 | 39987 ft | 431 kts | 254° |
| 2026-05-04 21:26 | -32.69316 | 23.23019 | 39987 ft | 432 kts | 254° |
| 2026-05-04 21:26 | -32.71517 | 23.16381 | 39988 ft | 432 kts | 254° |
| 2026-05-04 21:27 | -32.73711 | 23.09754 | 39990 ft | 431 kts | 254° |
| 2026-05-04 21:27 | -32.75910 | 23.03102 | 39993 ft | 432 kts | 254° |
| 2026-05-04 21:28 | -32.78104 | 22.96452 | 39992 ft | 432 kts | 254° |
| 2026-05-04 21:28 | -32.80299 | 22.89799 | 39992 ft | 432 kts | 254° |
| 2026-05-04 21:29 | -32.82468 | 22.83193 | 39990 ft | 432 kts | 254° |
| 2026-05-04 21:29 | -32.84655 | 22.76518 | 39992 ft | 432 kts | 254° |
| 2026-05-04 21:30 | -32.86836 | 22.69849 | 39992 ft | 432 kts | 254° |
| 2026-05-04 21:30 | -32.89014 | 22.63171 | 39992 ft | 433 kts | 254° |
| 2026-05-04 21:31 | -32.92318 | 22.53159 | 39993 ft | 435 kts | 252° |
| 2026-05-04 21:32 | -32.94920 | 22.46628 | 39990 ft | 437 kts | 249° |
| 2026-05-04 21:32 | -32.97616 | 22.40144 | 39988 ft | 437 kts | 249° |
| 2026-05-04 21:33 | -33.00244 | 22.33669 | 39992 ft | 437 kts | 250° |
| 2026-05-04 21:33 | -33.02848 | 22.27120 | 39998 ft | 437 kts | 250° |
| 2026-05-04 21:34 | -33.05439 | 22.20557 | 40001 ft | 437 kts | 250° |
| 2026-05-04 21:34 | -33.08028 | 22.13997 | 40000 ft | 437 kts | 250° |
| 2026-05-04 21:35 | -33.10614 | 22.07433 | 40001 ft | 437 kts | 250° |
| 2026-05-04 21:35 | -33.13200 | 22.00861 | 39998 ft | 438 kts | 250° |
| 2026-05-04 21:36 | -33.15791 | 21.94260 | 40000 ft | 440 kts | 250° |
| 2026-05-04 21:36 | -33.18390 | 21.87629 | 39999 ft | 441 kts | 250° |
| 2026-05-04 21:37 | -33.20994 | 21.80975 | 39998 ft | 441 kts | 250° |
| 2026-05-04 21:37 | -33.23573 | 21.74366 | 40001 ft | 442 kts | 250° |
| 2026-05-04 21:38 | -33.26167 | 21.67707 | 40000 ft | 441 kts | 250° |
| 2026-05-04 21:38 | -33.28764 | 21.61030 | 39998 ft | 441 kts | 250° |
| 2026-05-04 21:39 | -33.31349 | 21.54370 | 39998 ft | 442 kts | 250° |
| 2026-05-04 21:39 | -33.33919 | 21.47736 | 39999 ft | 442 kts | 250° |
| 2026-05-04 21:40 | -33.36506 | 21.41043 | 40000 ft | 442 kts | 250° |
| 2026-05-04 21:40 | -33.39068 | 21.34403 | 39999 ft | 442 kts | 250° |
| 2026-05-04 21:41 | -33.41640 | 21.27728 | 39997 ft | 442 kts | 250° |
| 2026-05-04 21:41 | -33.44206 | 21.21044 | 39995 ft | 441 kts | 250° |
| 2026-05-04 21:42 | -33.46772 | 21.14356 | 39998 ft | 441 kts | 250° |
| 2026-05-04 21:42 | -33.49335 | 21.07661 | 39966 ft | 441 kts | 250° |
| 2026-05-04 21:42 | -33.50611 | 21.04323 | 39742 ft | 440 kts | 250° |
| 2026-05-04 21:43 | -33.51883 | 21.00996 | 39493 ft | 438 kts | 250° |
| 2026-05-04 21:43 | -33.53146 | 20.97687 | 39244 ft | 437 kts | 251° |
| 2026-05-04 21:43 | -33.54411 | 20.94364 | 38991 ft | 437 kts | 251° |
| 2026-05-04 21:43 | -33.55675 | 20.91039 | 38748 ft | 436 kts | 251° |
| 2026-05-04 21:44 | -33.56928 | 20.87746 | 38360 ft | 434 kts | 251° |
| 2026-05-04 21:44 | -33.58187 | 20.84437 | 37848 ft | 434 kts | 251° |
| 2026-05-04 21:44 | -33.59422 | 20.81185 | 37330 ft | 435 kts | 251° |
| 2026-05-04 21:44 | -33.60672 | 20.77889 | 36789 ft | 435 kts | 251° |
| 2026-05-04 21:45 | -33.61924 | 20.74581 | 36224 ft | 435 kts | 251° |
| 2026-05-04 21:45 | -33.63177 | 20.71271 | 35644 ft | 436 kts | 251° |
| 2026-05-04 21:45 | -33.64433 | 20.67944 | 35012 ft | 438 kts | 251° |
| 2026-05-04 21:45 | -33.65695 | 20.64600 | 34362 ft | 441 kts | 251° |
| 2026-05-04 21:46 | -33.66965 | 20.61238 | 33703 ft | 443 kts | 251° |
| 2026-05-04 21:46 | -33.68242 | 20.57852 | 33016 ft | 445 kts | 251° |
| 2026-05-04 21:46 | -33.69523 | 20.54452 | 32314 ft | 446 kts | 251° |
| 2026-05-04 21:46 | -33.70371 | 20.52198 | 31835 ft | 448 kts | 251° |
| 2026-05-04 21:47 | -33.71654 | 20.48786 | 31238 ft | 446 kts | 251° |
| 2026-05-04 21:47 | -33.72924 | 20.45413 | 30769 ft | 441 kts | 252° |
| 2026-05-04 21:47 | -33.74592 | 20.40982 | 30126 ft | 436 kts | 252° |
| 2026-05-04 21:47 | -33.75832 | 20.37680 | 29639 ft | 432 kts | 252° |
| 2026-05-04 21:48 | -33.76667 | 20.35453 | 29307 ft | 429 kts | 252° |
| 2026-05-04 21:48 | -33.77869 | 20.32243 | 28823 ft | 425 kts | 252° |
| 2026-05-04 21:48 | -33.79075 | 20.29015 | 28332 ft | 422 kts | 252° |
| 2026-05-04 21:48 | -33.80271 | 20.25806 | 27832 ft | 419 kts | 252° |
| 2026-05-04 21:49 | -33.81458 | 20.22624 | 27346 ft | 415 kts | 252° |
| 2026-05-04 21:49 | -33.82646 | 20.19437 | 26879 ft | 411 kts | 252° |
| 2026-05-04 21:49 | -33.83813 | 20.16300 | 26384 ft | 408 kts | 252° |
| 2026-05-04 21:49 | -33.84966 | 20.13202 | 25900 ft | 404 kts | 252° |
| 2026-05-04 21:50 | -33.86095 | 20.10163 | 25429 ft | 401 kts | 252° |
| 2026-05-04 21:50 | -33.87242 | 20.07071 | 24952 ft | 398 kts | 252° |
| 2026-05-04 21:50 | -33.88351 | 20.04082 | 24483 ft | 395 kts | 252° |
| 2026-05-04 21:50 | -33.89467 | 20.01071 | 24008 ft | 392 kts | 251° |
| 2026-05-04 21:51 | -33.90573 | 19.98079 | 23517 ft | 389 kts | 251° |
| 2026-05-04 21:51 | -33.91664 | 19.95130 | 23074 ft | 384 kts | 251° |
| 2026-05-04 21:51 | -33.92749 | 19.92188 | 22628 ft | 382 kts | 251° |
| 2026-05-04 21:51 | -33.93823 | 19.89277 | 22165 ft | 380 kts | 251° |
| 2026-05-04 21:52 | -33.94899 | 19.86363 | 21704 ft | 378 kts | 251° |
| 2026-05-04 21:52 | -33.95963 | 19.83476 | 21247 ft | 376 kts | 251° |
| 2026-05-04 21:52 | -33.97023 | 19.80599 | 20786 ft | 375 kts | 251° |
| 2026-05-04 21:52 | -33.98133 | 19.77811 | 20467 ft | 371 kts | 248° |
| 2026-05-04 21:53 | -33.99329 | 19.75110 | 20333 ft | 360 kts | 248° |
| 2026-05-04 21:53 | -34.00488 | 19.72487 | 20198 ft | 349 kts | 248° |
| 2026-05-04 21:53 | -34.01602 | 19.69937 | 20063 ft | 339 kts | 248° |
| 2026-05-04 21:53 | -34.02679 | 19.67450 | 19932 ft | 330 kts | 248° |
| 2026-05-04 21:54 | -34.03728 | 19.65014 | 19738 ft | 324 kts | 249° |
| 2026-05-04 21:54 | -34.04752 | 19.62591 | 19381 ft | 323 kts | 251° |
| 2026-05-04 21:54 | -34.05412 | 19.60049 | 19020 ft | 313 kts | 268° |
| 2026-05-04 21:54 | -34.05369 | 19.57479 | 18711 ft | 304 kts | 282° |
| 2026-05-04 21:55 | -34.05043 | 19.54964 | 18348 ft | 303 kts | 283° |
| 2026-05-04 21:55 | -34.04686 | 19.52468 | 18005 ft | 301 kts | 283° |
| 2026-05-04 21:55 | -34.04333 | 19.49982 | 17690 ft | 300 kts | 283° |
| 2026-05-04 21:55 | -34.03986 | 19.47512 | 17373 ft | 299 kts | 283° |
| 2026-05-04 21:56 | -34.03646 | 19.45069 | 17058 ft | 299 kts | 283° |
| 2026-05-04 21:56 | -34.03304 | 19.42593 | 16770 ft | 297 kts | 282° |
| 2026-05-04 21:56 | -34.02972 | 19.40166 | 16603 ft | 290 kts | 282° |
| 2026-05-04 21:56 | -34.02642 | 19.37766 | 16445 ft | 283 kts | 282° |
| 2026-05-04 21:57 | -34.02320 | 19.35446 | 16294 ft | 277 kts | 282° |
| 2026-05-04 21:57 | -34.02005 | 19.33172 | 16075 ft | 274 kts | 282° |
| 2026-05-04 21:57 | -34.01693 | 19.30933 | 15838 ft | 274 kts | 282° |
| 2026-05-04 21:57 | -34.01378 | 19.28674 | 15592 ft | 273 kts | 282° |
| 2026-05-04 21:58 | -34.01115 | 19.26409 | 15342 ft | 273 kts | 279° |
| 2026-05-04 21:58 | -34.00882 | 19.24147 | 15071 ft | 272 kts | 280° |
| 2026-05-04 21:58 | -34.00644 | 19.21880 | 14828 ft | 271 kts | 279° |
| 2026-05-04 21:58 | -34.00471 | 19.20250 | 14644 ft | 271 kts | 279° |
| 2026-05-04 21:59 | -34.00353 | 19.19155 | 14523 ft | 271 kts | 279° |
| 2026-05-04 22:00 | -34.00111 | 19.16909 | 14286 ft | 270 kts | 279° |
| 2026-05-04 22:00 | -33.99867 | 19.14666 | 14045 ft | 269 kts | 279° |
| 2026-05-04 22:00 | -33.99625 | 19.12439 | 13813 ft | 268 kts | 279° |
| 2026-05-04 22:00 | -33.99381 | 19.10212 | 13600 ft | 267 kts | 279° |
| 2026-05-04 22:01 | -33.99138 | 19.07995 | 13340 ft | 267 kts | 279° |
| 2026-05-04 22:01 | -33.98899 | 19.05812 | 13108 ft | 266 kts | 279° |
| 2026-05-04 22:01 | -33.98651 | 19.03571 | 12873 ft | 266 kts | 279° |
| 2026-05-04 22:01 | -33.98410 | 19.01395 | 12637 ft | 265 kts | 279° |
| 2026-05-04 22:02 | -33.98162 | 18.99161 | 12386 ft | 265 kts | 279° |
| 2026-05-04 22:02 | -33.97920 | 18.96968 | 12086 ft | 264 kts | 278° |
| 2026-05-04 22:02 | -33.97677 | 18.94774 | 11768 ft | 263 kts | 278° |
| 2026-05-04 22:02 | -33.97438 | 18.92619 | 11440 ft | 263 kts | 278° |
| 2026-05-04 22:03 | -33.97195 | 18.90441 | 11084 ft | 263 kts | 278° |
| 2026-05-04 22:03 | -33.96971 | 18.88260 | 10748 ft | 262 kts | 275° |
| 2026-05-04 22:03 | -33.97119 | 18.86048 | 10397 ft | 263 kts | 258° |
| 2026-05-04 22:03 | -33.97576 | 18.83934 | 10088 ft | 262 kts | 255° |
| 2026-05-04 22:04 | -33.98075 | 18.81825 | 9749 ft | 261 kts | 255° |
| 2026-05-04 22:04 | -33.98584 | 18.79730 | 9456 ft | 261 kts | 252° |
| 2026-05-04 22:04 | -33.99445 | 18.77809 | 9152 ft | 263 kts | 229° |
| 2026-05-04 22:04 | -34.00937 | 18.76563 | 8875 ft | 265 kts | 200° |
| 2026-05-04 22:05 | -34.02756 | 18.76338 | 8608 ft | 266 kts | 172° |
| 2026-05-04 22:05 | -34.04553 | 18.76835 | 8361 ft | 265 kts | 165° |
| 2026-05-04 22:05 | -34.06325 | 18.77451 | 8103 ft | 264 kts | 165° |
| 2026-05-04 22:05 | -34.08086 | 18.78064 | 7835 ft | 263 kts | 165° |
| 2026-05-04 22:06 | -34.09840 | 18.78664 | 7564 ft | 261 kts | 165° |
| 2026-05-04 22:06 | -34.11613 | 18.79012 | 7189 ft | 258 kts | 183° |
| 2026-05-04 22:06 | -34.13307 | 18.78414 | 6812 ft | 255 kts | 214° |
| 2026-05-04 22:06 | -34.14499 | 18.76881 | 6446 ft | 251 kts | 244° |
| 2026-05-04 22:07 | -34.15034 | 18.74898 | 6133 ft | 248 kts | 258° |
| 2026-05-04 22:07 | -34.15369 | 18.72854 | 5822 ft | 249 kts | 259° |
| 2026-05-04 22:07 | -34.15689 | 18.70810 | 5550 ft | 246 kts | 260° |
| 2026-05-04 22:07 | -34.15799 | 18.68764 | 5208 ft | 246 kts | 278° |
| 2026-05-04 22:08 | -34.15176 | 18.66866 | 4728 ft | 247 kts | 308° |
| 2026-05-04 22:08 | -34.13826 | 18.65654 | 4082 ft | 245 kts | 338° |
| 2026-05-04 22:08 | -34.12181 | 18.65033 | 3170 ft | 252 kts | 345° |
| 2026-05-04 22:08 | -34.10473 | 18.64530 | 2395 ft | 252 kts | 347° |
| 2026-05-04 22:09 | -34.08797 | 18.64081 | 1962 ft | 238 kts | 345° |
| 2026-05-04 22:09 | -34.07284 | 18.63577 | 1845 ft | 212 kts | 344° |
| 2026-05-04 22:09 | -34.05908 | 18.63145 | 1613 ft | 197 kts | 346° |
| 2026-05-04 22:09 | -34.04631 | 18.62747 | 1349 ft | 182 kts | 346° |
| 2026-05-04 22:10 | -34.03469 | 18.62380 | 1118 ft | 163 kts | 346° |
| 2026-05-04 22:10 | -34.02416 | 18.62046 | 913 ft | 151 kts | 346° |
| 2026-05-04 22:10 | -34.01437 | 18.61737 | 724 ft | 140 kts | 346° |
| 2026-05-04 22:10 | -34.00518 | 18.61453 | 538 ft | 134 kts | 346° |
| 2026-05-04 22:11 | -33.99616 | 18.61161 | 363 ft | 136 kts | 345° |
| 2026-05-04 22:11 | -33.98703 | 18.60863 | 179 ft | 136 kts | 346° |
| 2026-05-04 22:11 | -33.97885 | 18.60606 | 155 ft | 97 kts | 345° |
| 2026-05-04 22:11 | -33.97405 | 18.60454 | 154 ft | 45 kts | 345° |
| 2026-05-04 22:12 | -33.97214 | 18.60390 | 155 ft | 19 kts | 340° |
| 2026-05-04 22:12 | -33.97119 | 18.60292 | 156 ft | 18 kts | 294° |
| 2026-05-04 22:12 | -33.97089 | 18.60177 | 156 ft | 12 kts | 286° |
| 2026-05-04 22:12 | -33.97071 | 18.60101 | 156 ft | 6 kts | 286° |
| 2026-05-04 22:13 | -33.97066 | 18.60082 | 156 ft | 0 kts | 286° |
| 2026-05-04 22:13 | -33.97063 | 18.60070 | 156 ft | 3 kts | 287° |
| 2026-05-04 22:13 | -33.97057 | 18.60040 | 156 ft | 5 kts | 284° |
| 2026-05-04 22:13 | -33.97048 | 18.59994 | 156 ft | 6 kts | 283° |
| 2026-05-04 22:14 | -33.97024 | 18.59947 | 156 ft | 7 kts | 322° |
| 2026-05-04 22:14 | -33.96972 | 18.59924 | 156 ft | 9 kts | 345° |
| 2026-05-04 22:14 | -33.96936 | 18.59902 | 156 ft | 2 kts | 301° |
| 2026-05-04 22:14 | -33.96935 | 18.59877 | 156 ft | 5 kts | 271° |
| 2026-05-04 22:15 | -33.96941 | 18.59838 | 156 ft | 3 kts | 256° |
| 2026-05-04 22:15 | -33.96943 | 18.59830 | 156 ft | 0 kts | 256° |
| 2026-05-04 22:18 | -33.97822 | 18.96081 | 11961 ft | 264 kts | 278° |
| 2026-05-04 22:19 | -33.97579 | 18.93888 | 11638 ft | 263 kts | 278° |
| 2026-05-04 22:19 | -33.97337 | 18.91712 | 11300 ft | 263 kts | 278° |
| 2026-05-04 22:19 | -33.97094 | 18.89533 | 10940 ft | 262 kts | 278° |
| 2026-05-04 22:19 | -33.96961 | 18.87341 | 10594 ft | 263 kts | 267° |
| 2026-05-04 22:20 | -33.97291 | 18.85189 | 10272 ft | 262 kts | 256° |
| 2026-05-04 22:20 | -34.02368 | 18.62031 | 925 ft | 151 kts | 346° |
| 2026-05-04 22:20 | -33.98328 | 18.60743 | 158 ft | 128 kts | 346° |
| 2026-05-04 22:20 | -33.97923 | 18.60618 | 155 ft | 90 kts | 345° |
| 2026-05-04 22:21 | -33.97885 | 18.60606 | 155 ft | 98 kts | 345° |
| 2026-05-04 22:21 | -33.97404 | 18.60453 | 154 ft | 45 kts | 345° |
| 2026-05-04 22:21 | -33.97214 | 18.60390 | 155 ft | 19 kts | 340° |
| 2026-05-04 22:21 | -33.97119 | 18.60292 | 156 ft | 18 kts | 294° |
| 2026-05-04 22:22 | -33.97089 | 18.60177 | 156 ft | 12 kts | 286° |
| 2026-05-04 22:22 | -33.97071 | 18.60101 | 156 ft | 6 kts | 286° |
| 2026-05-04 22:22 | -33.97060 | 18.60055 | 156 ft | 7 kts | 287° |
| 2026-05-04 22:22 | -33.97045 | 18.59998 | 156 ft | 8 kts | 287° |
| 2026-05-04 22:23 | -33.97025 | 18.59925 | 156 ft | 10 kts | 288° |
| 2026-05-04 22:23 | -33.97001 | 18.59842 | 156 ft | 11 kts | 289° |
| 2026-05-04 22:23 | -33.96996 | 18.59824 | 156 ft | 0 kts | 290° |